Hovedside
METAR-TAF:

METAR-TAF

Lufthavner :

Vitebsk, Hviterussland

breddegrad: 55-10N, lengdegrad: 030-13E, høyde over havet: 176 m

Gjeldene værobservasjon

Denne rapporten ble laget for 5 timer og 2 minutter siden, klokken 16:00 UTC
Flau vind
Temperatur 19°C
Luftfuktighet 28%
Trykk 1028 hPa
Sikt: 9000 m

METAR: UMII 231600Z 00000MPS 9000 NSC 19/00 Q1028 R23/D NOSIG

Tid: 00:02 (21:02 UTC)

Varsel

Denne rapporten ble laget for 7 timer og 0 minutter siden, klokken 14:02 UTC
Varsel gyldig fra 23. klokken 15 UTC til 23. klokken 24 UTC
Vind 6 kt fra Øst-sørøst
Sikt: 8000 m

TAF: UMII 231402Z 2315/2324 12003MPS 8000 NSC

Værobservasjoner og værvarsel for over 4000 flyplasser (METAR- og TAF-rapporter).

Tilgjengelige stasjoner er representert av de røde og gule prikkene på kartet.

Hold musepekeren over prikken for å se navnet på stasjonen.

Klikk så for å se værobservasjoner og -varsler.

For å forandre kartet kan du klikke på den grønne knappen med svart kryss for å zoome inn, på den grønne knappen med strek for å zoome ut, eller på de grønne pilene for å se tilstøtende kart.


METAR-TAF: